sensor_id;sensor_type;location;lat;lon;timestamp;pressure;altitude;pressure_sealevel;temperature;humidity
61710;BME280;73500;51.494;5.386;2023-12-22T00:01:28;100213.59;;;18.90;43.14
61710;BME280;73500;51.494;5.386;2023-12-22T00:03:54;100236.91;;;18.95;43.53
61710;BME280;73500;51.494;5.386;2023-12-22T00:06:19;100209.41;;;18.88;43.38
61710;BME280;73500;51.494;5.386;2023-12-22T00:08:44;100209.94;;;18.91;43.20
61710;BME280;73500;51.494;5.386;2023-12-22T00:11:10;100226.50;;;18.93;43.21
61710;BME280;73500;51.494;5.386;2023-12-22T00:13:35;100216.81;;;18.84;43.25
61710;BME280;73500;51.494;5.386;2023-12-22T00:16:00;100205.81;;;18.89;43.30
61710;BME280;73500;51.494;5.386;2023-12-22T00:18:28;100203.84;;;18.81;43.21
61710;BME280;73500;51.494;5.386;2023-12-22T00:20:54;100231.22;;;18.90;43.24
61710;BME280;73500;51.494;5.386;2023-12-22T00:23:19;100235.69;;;18.79;43.21
61710;BME280;73500;51.494;5.386;2023-12-22T00:25:44;100250.16;;;18.85;43.39
61710;BME280;73500;51.494;5.386;2023-12-22T00:28:09;100254.31;;;18.78;43.14
61710;BME280;73500;51.494;5.386;2023-12-22T00:30:35;100254.59;;;18.84;43.25
61710;BME280;73500;51.494;5.386;2023-12-22T00:33:00;100254.59;;;18.75;43.29
61710;BME280;73500;51.494;5.386;2023-12-22T00:35:25;100264.31;;;18.74;43.17
61710;BME280;73500;51.494;5.386;2023-12-22T00:37:51;100275.00;;;18.82;43.19
61710;BME280;73500;51.494;5.386;2023-12-22T00:40:16;100259.19;;;18.73;43.22
61710;BME280;73500;51.494;5.386;2023-12-22T00:42:41;100278.06;;;18.78;42.86
61710;BME280;73500;51.494;5.386;2023-12-22T00:45:07;100258.47;;;18.71;42.97
61710;BME280;73500;51.494;5.386;2023-12-22T00:47:32;100269.19;;;18.79;42.85
61710;BME280;73500;51.494;5.386;2023-12-22T00:50:00;100259.88;;;18.75;42.98
61710;BME280;73500;51.494;5.386;2023-12-22T00:52:26;100273.59;;;18.78;42.95
61710;BME280;73500;51.494;5.386;2023-12-22T00:54:51;100266.25;;;18.72;42.85
61710;BME280;73500;51.494;5.386;2023-12-22T00:57:17;100263.88;;;18.69;43.18
61710;BME280;73500;51.494;5.386;2023-12-22T00:59:42;100281.94;;;18.74;42.95
61710;BME280;73500;51.494;5.386;2023-12-22T01:02:13;100275.16;;;18.71;43.11
61710;BME280;73500;51.494;5.386;2023-12-22T01:04:38;100267.25;;;18.71;42.99
61710;BME280;73500;51.494;5.386;2023-12-22T01:07:03;100277.09;;;18.69;42.82
61710;BME280;73500;51.494;5.386;2023-12-22T01:09:29;100283.09;;;18.61;42.83
61710;BME280;73500;51.494;5.386;2023-12-22T01:11:54;100272.66;;;18.70;42.86
61710;BME280;73500;51.494;5.386;2023-12-22T01:14:19;100249.91;;;18.59;42.77
61710;BME280;73500;51.494;5.386;2023-12-22T01:16:44;100258.78;;;18.67;42.74
61710;BME280;73500;51.494;5.386;2023-12-22T01:19:10;100262.66;;;18.63;42.06
61710;BME280;73500;51.494;5.386;2023-12-22T01:21:35;100265.03;;;18.66;42.06
61710;BME280;73500;51.494;5.386;2023-12-22T01:24:00;100265.16;;;18.65;42.14
61710;BME280;73500;51.494;5.386;2023-12-22T01:26:25;100277.69;;;18.63;42.13
61710;BME280;73500;51.494;5.386;2023-12-22T01:28:51;100272.13;;;18.56;42.28
61710;BME280;73500;51.494;5.386;2023-12-22T01:31:16;100289.47;;;18.59;42.29
61710;BME280;73500;51.494;5.386;2023-12-22T01:33:41;100301.56;;;18.61;42.15
61710;BME280;73500;51.494;5.386;2023-12-22T01:36:07;100283.09;;;18.52;41.99
61710;BME280;73500;51.494;5.386;2023-12-22T01:38:32;100283.81;;;18.54;42.08
61710;BME280;73500;51.494;5.386;2023-12-22T01:40:58;100295.19;;;18.54;42.09
61710;BME280;73500;51.494;5.386;2023-12-22T01:43:23;100299.34;;;18.57;41.86
61710;BME280;73500;51.494;5.386;2023-12-22T01:45:52;100291.00;;;18.52;41.75
61710;BME280;73500;51.494;5.386;2023-12-22T01:48:17;100289.34;;;18.51;41.84
61710;BME280;73500;51.494;5.386;2023-12-22T01:50:43;100308.09;;;18.57;41.70
61710;BME280;73500;51.494;5.386;2023-12-22T01:53:10;100296.00;;;18.55;41.76
61710;BME280;73500;51.494;5.386;2023-12-22T01:55:35;100313.50;;;18.56;41.92
61710;BME280;73500;51.494;5.386;2023-12-22T01:58:00;100299.50;;;18.45;41.85
61710;BME280;73500;51.494;5.386;2023-12-22T02:00:26;100309.34;;;18.53;41.90
61710;BME280;73500;51.494;5.386;2023-12-22T02:02:52;100314.22;;;18.48;41.79
61710;BME280;73500;51.494;5.386;2023-12-22T02:05:17;100314.75;;;18.52;41.49
61710;BME280;73500;51.494;5.386;2023-12-22T02:07:43;100303.25;;;18.43;41.71
61710;BME280;73500;51.494;5.386;2023-12-22T02:10:09;100326.16;;;18.52;41.63
61710;BME280;73500;51.494;5.386;2023-12-22T02:12:36;100304.22;;;18.42;41.56
61710;BME280;73500;51.494;5.386;2023-12-22T02:15:01;100310.34;;;18.42;41.37
61710;BME280;73500;51.494;5.386;2023-12-22T02:17:35;100290.75;;;18.45;41.38
61710;BME280;73500;51.494;5.386;2023-12-22T02:20:02;100278.09;;;18.39;41.42
61710;BME280;73500;51.494;5.386;2023-12-22T02:22:28;100291.31;;;18.48;41.42
61710;BME280;73500;51.494;5.386;2023-12-22T02:24:54;100283.53;;;18.37;41.57
61710;BME280;73500;51.494;5.386;2023-12-22T02:27:38;100287.41;;;18.43;41.46
61710;BME280;73500;51.494;5.386;2023-12-22T02:30:12;100313.81;;;18.43;41.39
61710;BME280;73500;51.494;5.386;2023-12-22T02:32:42;100301.97;;;18.37;41.18
61710;BME280;73500;51.494;5.386;2023-12-22T02:35:15;100330.31;;;18.45;41.10
61710;BME280;73500;51.494;5.386;2023-12-22T02:37:42;100334.09;;;18.42;41.20
61710;BME280;73500;51.494;5.386;2023-12-22T02:40:08;100351.97;;;18.39;41.18
61710;BME280;73500;51.494;5.386;2023-12-22T02:42:35;100352.25;;;18.36;41.23
61710;BME280;73500;51.494;5.386;2023-12-22T02:45:03;100332.28;;;18.33;41.59
61710;BME280;73500;51.494;5.386;2023-12-22T02:47:28;100315.75;;;18.31;41.48
61710;BME280;73500;51.494;5.386;2023-12-22T02:49:54;100312.41;;;18.29;41.31
61710;BME280;73500;51.494;5.386;2023-12-22T02:52:19;100339.63;;;18.39;41.27
61710;BME280;73500;51.494;5.386;2023-12-22T02:54:44;100308.81;;;18.30;41.31
61710;BME280;73500;51.494;5.386;2023-12-22T02:57:12;100324.91;;;18.37;41.04
61710;BME280;73500;51.494;5.386;2023-12-22T02:59:37;100318.66;;;18.38;41.04
61710;BME280;73500;51.494;5.386;2023-12-22T03:02:02;100310.75;;;18.38;41.21
61710;BME280;73500;51.494;5.386;2023-12-22T03:04:28;100308.13;;;18.38;41.08
61710;BME280;73500;51.494;5.386;2023-12-22T03:06:53;100299.06;;;18.30;41.19
61710;BME280;73500;51.494;5.386;2023-12-22T03:09:18;100306.72;;;18.34;41.18
61710;BME280;73500;51.494;5.386;2023-12-22T03:11:44;100296.84;;;18.26;41.04
61710;BME280;73500;51.494;5.386;2023-12-22T03:14:09;100297.28;;;18.31;41.22
61710;BME280;73500;51.494;5.386;2023-12-22T03:16:35;100276.88;;;18.23;41.06
61710;BME280;73500;51.494;5.386;2023-12-22T03:19:00;100289.66;;;18.28;41.25
61710;BME280;73500;51.494;5.386;2023-12-22T03:21:25;100307.72;;;18.33;40.97
61710;BME280;73500;51.494;5.386;2023-12-22T03:23:51;100294.66;;;18.31;41.13
61710;BME280;73500;51.494;5.386;2023-12-22T03:26:16;100285.88;;;18.30;40.92
61710;BME280;73500;51.494;5.386;2023-12-22T03:28:41;100282.16;;;18.23;41.32
61710;BME280;73500;51.494;5.386;2023-12-22T03:31:06;100287.16;;;18.26;41.34
61710;BME280;73500;51.494;5.386;2023-12-22T03:33:33;100280.47;;;18.22;41.52
61710;BME280;73500;51.494;5.386;2023-12-22T03:35:58;100277.97;;;18.21;41.05
61710;BME280;73500;51.494;5.386;2023-12-22T03:38:23;100281.75;;;18.28;41.35
61710;BME280;73500;51.494;5.386;2023-12-22T03:40:48;100285.06;;;18.20;41.21
61710;BME280;73500;51.494;5.386;2023-12-22T03:43:14;100275.34;;;18.21;41.25
61710;BME280;73500;51.494;5.386;2023-12-22T03:45:39;100280.34;;;18.24;41.26
61710;BME280;73500;51.494;5.386;2023-12-22T03:48:05;100279.06;;;18.18;41.04
61710;BME280;73500;51.494;5.386;2023-12-22T03:50:30;100286.84;;;18.20;40.99
61710;BME280;73500;51.494;5.386;2023-12-22T03:52:55;100302.13;;;18.26;41.12
61710;BME280;73500;51.494;5.386;2023-12-22T03:55:21;100301.44;;;18.24;41.10
61710;BME280;73500;51.494;5.386;2023-12-22T03:57:46;100297.84;;;18.25;41.13
61710;BME280;73500;51.494;5.386;2023-12-22T04:00:12;100282.56;;;18.19;40.92
61710;BME280;73500;51.494;5.386;2023-12-22T04:02:39;100300.47;;;18.25;41.29
61710;BME280;73500;51.494;5.386;2023-12-22T04:05:05;100303.25;;;18.23;41.08
61710;BME280;73500;51.494;5.386;2023-12-22T04:07:30;100294.06;;;18.18;41.16
61710;BME280;73500;51.494;5.386;2023-12-22T04:09:55;100324.34;;;18.23;41.32
61710;BME280;73500;51.494;5.386;2023-12-22T04:12:21;100320.03;;;18.22;41.23
61710;BME280;73500;51.494;5.386;2023-12-22T04:14:46;100314.75;;;18.22;41.04
61710;BME280;73500;51.494;5.386;2023-12-22T04:17:11;100311.84;;;18.16;41.00
61710;BME280;73500;51.494;5.386;2023-12-22T04:19:36;100315.72;;;18.21;41.10
61710;BME280;73500;51.494;5.386;2023-12-22T04:22:02;100326.72;;;18.17;41.15
61710;BME280;73500;51.494;5.386;2023-12-22T04:24:28;100337.94;;;18.19;41.15
61710;BME280;73500;51.494;5.386;2023-12-22T04:26:53;100317.53;;;18.11;41.16
61710;BME280;73500;51.494;5.386;2023-12-22T04:29:18;100337.09;;;18.18;41.30
61710;BME280;73500;51.494;5.386;2023-12-22T04:31:43;100337.94;;;18.19;41.07
61710;BME280;73500;51.494;5.386;2023-12-22T04:34:09;100333.34;;;18.11;41.05
61710;BME280;73500;51.494;5.386;2023-12-22T04:36:35;100326.41;;;18.10;41.32
61710;BME280;73500;51.494;5.386;2023-12-22T04:39:00;100343.38;;;18.17;41.08
61710;BME280;73500;51.494;5.386;2023-12-22T04:41:26;100346.00;;;18.17;41.22
61710;BME280;73500;51.494;5.386;2023-12-22T04:43:51;100346.97;;;18.16;41.09
61710;BME280;73500;51.494;5.386;2023-12-22T04:46:16;100358.38;;;18.17;41.07
61710;BME280;73500;51.494;5.386;2023-12-22T04:48:41;100346.97;;;18.16;40.93
61710;BME280;73500;51.494;5.386;2023-12-22T04:51:07;100330.16;;;18.07;40.91
61710;BME280;73500;51.494;5.386;2023-12-22T04:53:32;100346.13;;;18.16;41.01
61710;BME280;73500;51.494;5.386;2023-12-22T04:55:57;100324.31;;;18.04;41.04
61710;BME280;73500;51.494;5.386;2023-12-22T04:58:23;100331.28;;;18.15;40.94
61710;BME280;73500;51.494;5.386;2023-12-22T05:00:49;100318.91;;;18.05;41.11
61710;BME280;73500;51.494;5.386;2023-12-22T05:03:14;100335.97;;;18.01;40.84
61710;BME280;73500;51.494;5.386;2023-12-22T05:05:39;100366.53;;;18.13;40.96
61710;BME280;73500;51.494;5.386;2023-12-22T05:08:05;100344.72;;;18.02;40.88
61710;BME280;73500;51.494;5.386;2023-12-22T05:10:30;100369.31;;;18.12;40.85
61710;BME280;73500;51.494;5.386;2023-12-22T05:12:56;100364.88;;;18.12;40.83
61710;BME280;73500;51.494;5.386;2023-12-22T05:15:21;100359.88;;;18.09;41.20
61710;BME280;73500;51.494;5.386;2023-12-22T05:17:46;100335.00;;;18.02;41.01
61710;BME280;73500;51.494;5.386;2023-12-22T05:20:11;100336.81;;;18.11;41.17
61710;BME280;73500;51.494;5.386;2023-12-22T05:22:37;100336.81;;;18.11;41.12
61710;BME280;73500;51.494;5.386;2023-12-22T05:25:02;100343.75;;;18.03;41.40
61710;BME280;73500;51.494;5.386;2023-12-22T05:27:28;100351.81;;;18.01;41.49
61710;BME280;73500;51.494;5.386;2023-12-22T05:29:53;100367.78;;;18.09;41.29
61710;BME280;73500;51.494;5.386;2023-12-22T05:32:18;100350.41;;;17.97;41.44
61710;BME280;73500;51.494;5.386;2023-12-22T05:34:43;100348.03;;;18.04;41.70
61710;BME280;73500;51.494;5.386;2023-12-22T05:37:09;100342.22;;;18.10;41.64
61710;BME280;73500;51.494;5.386;2023-12-22T05:39:34;100341.25;;;18.01;41.63
61710;BME280;73500;51.494;5.386;2023-12-22T05:41:59;100353.91;;;18.07;41.56
61710;BME280;73500;51.494;5.386;2023-12-22T05:44:24;100339.72;;;17.99;41.69
61710;BME280;73500;51.494;5.386;2023-12-22T05:46:54;100339.72;;;17.99;41.54
61710;BME280;73500;51.494;5.386;2023-12-22T05:49:19;100329.16;;;17.99;41.72
61710;BME280;73500;51.494;5.386;2023-12-22T05:51:44;100327.66;;;17.96;41.68
61710;BME280;73500;51.494;5.386;2023-12-22T05:54:11;100348.75;;;17.96;41.94
61710;BME280;73500;51.494;5.386;2023-12-22T05:56:36;100343.59;;;17.94;41.76
61710;BME280;73500;51.494;5.386;2023-12-22T05:59:02;100350.53;;;18.05;41.95
61710;BME280;73500;51.494;5.386;2023-12-22T06:01:28;100351.66;;;18.03;41.82
61710;BME280;73500;51.494;5.386;2023-12-22T06:03:53;100339.44;;;18.02;41.91
61710;BME280;73500;51.494;5.386;2023-12-22T06:06:19;100340.72;;;18.07;42.03
61710;BME280;73500;51.494;5.386;2023-12-22T06:08:45;100329.16;;;17.99;42.21
61710;BME280;73500;51.494;5.386;2023-12-22T06:11:10;100324.59;;;18.01;42.18
61710;BME280;73500;51.494;5.386;2023-12-22T06:13:35;100335.16;;;18.10;42.12
61710;BME280;73500;51.494;5.386;2023-12-22T06:16:01;100329.03;;;18.10;42.40
61710;BME280;73500;51.494;5.386;2023-12-22T06:18:26;100344.31;;;18.16;42.23
61710;BME280;73500;51.494;5.386;2023-12-22T06:20:52;100335.44;;;18.17;42.21
61710;BME280;73500;51.494;5.386;2023-12-22T06:23:17;100324.34;;;18.13;42.61
61710;BME280;73500;51.494;5.386;2023-12-22T06:25:42;100325.19;;;18.14;42.50
61710;BME280;73500;51.494;5.386;2023-12-22T06:28:07;100335.59;;;18.25;42.47
61710;BME280;73500;51.494;5.386;2023-12-22T06:30:33;100326.72;;;18.26;42.76
61710;BME280;73500;51.494;5.386;2023-12-22T06:32:58;100319.09;;;18.23;42.70
61710;BME280;73500;51.494;5.386;2023-12-22T06:35:23;100336.00;;;18.30;42.56
61710;BME280;73500;51.494;5.386;2023-12-22T06:37:53;100339.78;;;18.38;42.39
61710;BME280;73500;51.494;5.386;2023-12-22T06:40:20;100334.91;;;18.33;42.59
61710;BME280;73500;51.494;5.386;2023-12-22T06:42:45;100357.81;;;18.42;42.34
61710;BME280;73500;51.494;5.386;2023-12-22T06:45:10;100349.59;;;18.36;42.68
61710;BME280;73500;51.494;5.386;2023-12-22T06:47:36;100361.00;;;18.46;42.57
61710;BME280;73500;51.494;5.386;2023-12-22T06:50:01;100348.09;;;18.43;42.46
61710;BME280;73500;51.494;5.386;2023-12-22T06:52:27;100358.78;;;18.51;42.37
61710;BME280;73500;51.494;5.386;2023-12-22T06:54:52;100361.56;;;18.49;42.49
61710;BME280;73500;51.494;5.386;2023-12-22T06:57:17;100338.38;;;18.43;42.62
61710;BME280;73500;51.494;5.386;2023-12-22T06:59:43;100350.47;;;18.56;42.25
61710;BME280;73500;51.494;5.386;2023-12-22T07:02:08;100353.91;;;18.56;42.58
61710;BME280;73500;51.494;5.386;2023-12-22T07:04:33;100352.97;;;18.57;42.43
61710;BME280;73500;51.494;5.386;2023-12-22T07:06:59;100342.13;;;18.51;42.36
61710;BME280;73500;51.494;5.386;2023-12-22T07:11:50;100352.00;;;18.58;42.49
61710;BME280;73500;51.494;5.386;2023-12-22T07:14:16;100351.28;;;18.56;42.33
61710;BME280;73500;51.494;5.386;2023-12-22T07:16:42;100350.19;;;18.59;42.56
61710;BME280;73500;51.494;5.386;2023-12-22T07:19:07;100328.94;;;18.51;42.45
61710;BME280;73500;51.494;5.386;2023-12-22T07:21:32;100335.88;;;18.52;42.47
61710;BME280;73500;51.494;5.386;2023-12-22T07:23:58;100346.28;;;18.53;42.34
61710;BME280;73500;51.494;5.386;2023-12-22T07:26:23;100335.72;;;18.53;42.42
61710;BME280;73500;51.494;5.386;2023-12-22T07:28:49;100335.31;;;18.58;42.56
61710;BME280;73500;51.494;5.386;2023-12-22T07:31:15;100340.16;;;18.62;42.76
61710;BME280;73500;51.494;5.386;2023-12-22T07:33:40;100331.16;;;18.55;42.06
61710;BME280;73500;51.494;5.386;2023-12-22T07:36:06;100315.59;;;18.52;42.18
61710;BME280;73500;51.494;5.386;2023-12-22T07:38:32;100348.94;;;18.63;42.41
61710;BME280;73500;51.494;5.386;2023-12-22T07:40:57;100330.44;;;18.53;42.12
61710;BME280;73500;51.494;5.386;2023-12-22T07:43:22;100321.69;;;18.53;42.48
61710;BME280;73500;51.494;5.386;2023-12-22T07:45:48;100341.97;;;18.62;42.49
61710;BME280;73500;51.494;5.386;2023-12-22T07:48:15;100331.03;;;18.57;42.57
61710;BME280;73500;51.494;5.386;2023-12-22T07:50:41;100329.88;;;18.59;42.35
61710;BME280;73500;51.494;5.386;2023-12-22T07:53:07;100332.97;;;18.64;42.65
61710;BME280;73500;51.494;5.386;2023-12-22T07:55:33;100331.69;;;18.68;42.49
61710;BME280;73500;51.494;5.386;2023-12-22T07:57:58;100324.34;;;18.62;42.57
61710;BME280;73500;51.494;5.386;2023-12-22T08:00:23;100343.78;;;18.71;42.70
61710;BME280;73500;51.494;5.386;2023-12-22T08:02:49;100325.19;;;18.63;42.52
61710;BME280;73500;51.494;5.386;2023-12-22T08:05:14;100342.94;;;18.71;42.64
61710;BME280;73500;51.494;5.386;2023-12-22T08:07:40;100341.16;;;18.71;42.71
61710;BME280;73500;51.494;5.386;2023-12-22T08:10:06;100334.34;;;18.68;42.54
61710;BME280;73500;51.494;5.386;2023-12-22T08:12:31;100350.72;;;18.72;42.47
61710;BME280;73500;51.494;5.386;2023-12-22T08:14:58;100333.78;;;18.65;42.54
61710;BME280;73500;51.494;5.386;2023-12-22T08:17:23;100327.53;;;18.66;43.03
61710;BME280;73500;51.494;5.386;2023-12-22T08:19:48;100353.78;;;18.77;42.88
61710;BME280;73500;51.494;5.386;2023-12-22T08:22:14;100348.38;;;18.79;42.85
61710;BME280;73500;51.494;5.386;2023-12-22T08:24:40;100330.59;;;18.71;42.98
61710;BME280;73500;51.494;5.386;2023-12-22T08:27:07;100347.38;;;18.80;43.07
61710;BME280;73500;51.494;5.386;2023-12-22T08:29:32;100334.88;;;18.72;43.05
61710;BME280;73500;51.494;5.386;2023-12-22T08:31:58;100341.69;;;18.75;43.21
61710;BME280;73500;51.494;5.386;2023-12-22T08:34:23;100322.53;;;18.63;43.17
61710;BME280;73500;51.494;5.386;2023-12-22T08:36:49;100344.75;;;18.80;43.12
61710;BME280;73500;51.494;5.386;2023-12-22T08:39:14;100346.41;;;18.81;43.14
61710;BME280;73500;51.494;5.386;2023-12-22T08:41:40;100345.59;;;18.80;43.21
61710;BME280;73500;51.494;5.386;2023-12-22T08:44:06;100343.78;;;18.81;43.27
61710;BME280;73500;51.494;5.386;2023-12-22T08:46:32;100315.72;;;18.70;43.34
61710;BME280;73500;51.494;5.386;2023-12-22T08:48:57;100315.72;;;18.70;43.21
61710;BME280;73500;51.494;5.386;2023-12-22T08:51:24;100333.50;;;18.78;43.20
61710;BME280;73500;51.494;5.386;2023-12-22T08:53:49;100339.06;;;18.75;43.43
61710;BME280;73500;51.494;5.386;2023-12-22T08:56:15;100343.09;;;18.79;43.13
61710;BME280;73500;51.494;5.386;2023-12-22T08:58:41;100318.34;;;18.70;43.54
61710;BME280;73500;51.494;5.386;2023-12-22T09:01:07;100340.44;;;18.79;43.70
61710;BME280;73500;51.494;5.386;2023-12-22T09:03:33;100336.56;;;18.73;43.78
61710;BME280;73500;51.494;5.386;2023-12-22T09:05:59;100326.25;;;18.80;43.73
61710;BME280;73500;51.494;5.386;2023-12-22T09:08:24;100332.53;;;18.79;44.08
61710;BME280;73500;51.494;5.386;2023-12-22T09:10:49;100307.94;;;18.68;43.95
61710;BME280;73500;51.494;5.386;2023-12-22T09:13:15;100334.19;;;18.80;43.82
61710;BME280;73500;51.494;5.386;2023-12-22T09:15:40;100328.06;;;18.79;43.83
61710;BME280;73500;51.494;5.386;2023-12-22T09:18:06;100330.72;;;18.79;43.70
61710;BME280;73500;51.494;5.386;2023-12-22T09:20:32;100325.72;;;18.76;43.86
61710;BME280;73500;51.494;5.386;2023-12-22T09:22:57;100329.03;;;18.78;43.75
61710;BME280;73500;51.494;5.386;2023-12-22T09:25:23;100324.75;;;18.77;43.86
61710;BME280;73500;51.494;5.386;2023-12-22T09:27:49;100320.84;;;18.72;43.78
61710;BME280;73500;51.494;5.386;2023-12-22T09:30:14;100331.00;;;18.76;43.77
61710;BME280;73500;51.494;5.386;2023-12-22T09:32:39;100310.03;;;18.65;43.70
61710;BME280;73500;51.494;5.386;2023-12-22T09:35:05;100336.56;;;18.73;43.94
61710;BME280;73500;51.494;5.386;2023-12-22T09:37:30;100316.25;;;18.74;43.86
61710;BME280;73500;51.494;5.386;2023-12-22T09:39:56;100307.66;;;18.72;43.87
61710;BME280;73500;51.494;5.386;2023-12-22T09:42:21;100313.91;;;18.71;43.93
61710;BME280;73500;51.494;5.386;2023-12-22T09:44:51;100297.13;;;18.62;43.87
61710;BME280;73500;51.494;5.386;2023-12-22T09:47:18;100306.97;;;18.70;44.00
61710;BME280;73500;51.494;5.386;2023-12-22T09:49:45;100290.03;;;18.62;44.04
61710;BME280;73500;51.494;5.386;2023-12-22T09:52:12;100299.06;;;18.60;43.86
61710;BME280;73500;51.494;5.386;2023-12-22T09:54:39;100322.66;;;18.71;43.80
61710;BME280;73500;51.494;5.386;2023-12-22T09:57:05;100313.91;;;18.71;43.83
61710;BME280;73500;51.494;5.386;2023-12-22T09:59:32;100302.41;;;18.62;44.09
61710;BME280;73500;51.494;5.386;2023-12-22T10:01:59;100308.75;;;18.69;43.81
61710;BME280;73500;51.494;5.386;2023-12-22T10:04:27;100293.66;;;18.61;43.71
61710;BME280;73500;51.494;5.386;2023-12-22T10:06:53;100282.25;;;18.61;44.00
61710;BME280;73500;51.494;5.386;2023-12-22T10:09:22;100291.56;;;18.65;44.00
61710;BME280;73500;51.494;5.386;2023-12-22T10:11:49;100289.19;;;18.62;43.87
61710;BME280;73500;51.494;5.386;2023-12-22T10:14:17;100296.69;;;18.66;43.85
61710;BME280;73500;51.494;5.386;2023-12-22T10:16:48;100299.06;;;18.70;44.04
61710;BME280;73500;51.494;5.386;2023-12-22T10:19:14;100306.97;;;18.70;44.27
61710;BME280;73500;51.494;5.386;2023-12-22T10:21:40;100279.75;;;18.59;44.00
61710;BME280;73500;51.494;5.386;2023-12-22T10:24:05;100315.19;;;18.66;44.23
61710;BME280;73500;51.494;5.386;2023-12-22T10:26:30;100307.13;;;18.68;44.28
61710;BME280;73500;51.494;5.386;2023-12-22T10:28:56;100319.19;;;18.71;44.02
61710;BME280;73500;51.494;5.386;2023-12-22T10:31:21;100312.25;;;18.70;44.45
61710;BME280;73500;51.494;5.386;2023-12-22T10:33:47;100310.44;;;18.70;44.64
61710;BME280;73500;51.494;5.386;2023-12-22T10:36:13;100312.13;;;18.71;44.62
61710;BME280;73500;51.494;5.386;2023-12-22T10:38:39;100286.69;;;18.60;44.53
61710;BME280;73500;51.494;5.386;2023-12-22T10:41:06;100312.78;;;18.73;44.43
61710;BME280;73500;51.494;5.386;2023-12-22T10:43:39;100309.06;;;18.66;44.71
61710;BME280;73500;51.494;5.386;2023-12-22T10:46:06;100301.81;;;18.78;44.81
61710;BME280;73500;51.494;5.386;2023-12-22T10:48:33;100314.88;;;18.79;44.74
61710;BME280;73500;51.494;5.386;2023-12-22T10:50:58;100313.91;;;18.80;44.67
61710;BME280;73500;51.494;5.386;2023-12-22T10:53:24;100308.06;;;18.77;44.51
61710;BME280;73500;51.494;5.386;2023-12-22T10:55:49;100309.88;;;18.76;44.66
61710;BME280;73500;51.494;5.386;2023-12-22T10:58:16;100304.31;;;18.79;44.73
61710;BME280;73500;51.494;5.386;2023-12-22T11:00:44;100296.69;;;18.76;44.88
61710;BME280;73500;51.494;5.386;2023-12-22T11:03:13;100290.44;;;18.77;44.50
61710;BME280;73500;51.494;5.386;2023-12-22T11:05:44;100327.25;;;18.89;44.81
61710;BME280;73500;51.494;5.386;2023-12-22T11:08:11;100296.41;;;18.79;44.77
61710;BME280;73500;51.494;5.386;2023-12-22T11:10:38;100302.78;;;18.87;44.88
61710;BME280;73500;51.494;5.386;2023-12-22T11:13:08;100302.78;;;18.87;44.61
61710;BME280;73500;51.494;5.386;2023-12-22T11:15:34;100297.78;;;18.83;44.77
61710;BME280;73500;51.494;5.386;2023-12-22T11:18:01;100296.41;;;18.79;44.46
61710;BME280;73500;51.494;5.386;2023-12-22T11:20:27;100307.94;;;18.88;44.71
61710;BME280;73500;51.494;5.386;2023-12-22T11:22:54;100255.03;;;18.60;44.75
61710;BME280;73500;51.494;5.386;2023-12-22T11:25:22;100297.78;;;18.83;44.75
61710;BME280;73500;51.494;5.386;2023-12-22T11:27:48;100285.31;;;18.85;44.93
61710;BME280;73500;51.494;5.386;2023-12-22T11:30:18;100287.94;;;18.85;44.89
61710;BME280;73500;51.494;5.386;2023-12-22T11:32:44;100283.72;;;18.83;44.98
61710;BME280;73500;51.494;5.386;2023-12-22T11:35:09;100286.53;;;18.81;44.75
61710;BME280;73500;51.494;5.386;2023-12-22T11:37:35;100285.31;;;18.85;44.90
61710;BME280;73500;51.494;5.386;2023-12-22T11:40:02;100274.59;;;18.77;44.82
61710;BME280;73500;51.494;5.386;2023-12-22T11:42:32;100291.41;;;18.86;44.95
61710;BME280;73500;51.494;5.386;2023-12-22T11:44:59;100274.75;;;18.76;44.75
61710;BME280;73500;51.494;5.386;2023-12-22T11:47:24;100289.59;;;18.87;44.79
61710;BME280;73500;51.494;5.386;2023-12-22T11:49:51;100253.34;;;18.79;44.77
61710;BME280;73500;51.494;5.386;2023-12-22T11:52:17;100280.84;;;18.86;45.05
61710;BME280;73500;51.494;5.386;2023-12-22T11:54:51;100275.69;;;18.84;45.05
61710;BME280;73500;51.494;5.386;2023-12-22T11:57:37;100268.31;;;18.78;45.15
61710;BME280;73500;51.494;5.386;2023-12-22T12:00:06;100275.69;;;18.84;45.08
61710;BME280;73500;51.494;5.386;2023-12-22T12:02:35;100253.63;;;18.76;45.33
61710;BME280;73500;51.494;5.386;2023-12-22T12:05:01;100266.97;;;18.84;45.23
61710;BME280;73500;51.494;5.386;2023-12-22T12:07:40;100269.59;;;18.84;45.06
61710;BME280;73500;51.494;5.386;2023-12-22T12:10:07;100274.16;;;18.82;45.28
61710;BME280;73500;51.494;5.386;2023-12-22T12:12:33;100260.25;;;18.80;45.22
61710;BME280;73500;51.494;5.386;2023-12-22T12:15:07;100267.78;;;18.84;45.18
61710;BME280;73500;51.494;5.386;2023-12-22T12:17:32;100266.81;;;18.76;45.02
61710;BME280;73500;51.494;5.386;2023-12-22T12:19:58;100257.09;;;18.76;45.17
61710;BME280;73500;51.494;5.386;2023-12-22T12:22:24;100259.28;;;18.81;45.26
61710;BME280;73500;51.494;5.386;2023-12-22T12:24:51;100259.16;;;18.82;45.44
61710;BME280;73500;51.494;5.386;2023-12-22T12:27:18;100244.84;;;18.75;45.41
61710;BME280;73500;51.494;5.386;2023-12-22T12:29:44;100239.44;;;18.77;45.62
61710;BME280;73500;51.494;5.386;2023-12-22T12:32:13;100252.06;;;18.83;45.66
61710;BME280;73500;51.494;5.386;2023-12-22T12:34:42;100230.81;;;18.75;45.49
61710;BME280;73500;51.494;5.386;2023-12-22T12:37:07;100236.25;;;18.73;45.63
61710;BME280;73500;51.494;5.386;2023-12-22T12:39:34;100234.56;;;18.82;45.57
61710;BME280;73500;51.494;5.386;2023-12-22T12:42:00;100244.13;;;18.83;45.66
61710;BME280;73500;51.494;5.386;2023-12-22T12:44:29;100246.78;;;18.83;45.40
61710;BME280;73500;51.494;5.386;2023-12-22T12:46:57;100236.09;;;18.75;45.49